Time;durP1;ratioP1;P1;durP2;ratioP2;P2;SDS_P1;SDS_P2;PMS_P1;PMS_P2;Temp;Humidity;BMP_temperature;BMP_pressure;BME280_temperature;BME280_humidity;BME280_pressure;Samples;Min_cycle;Max_cycle;Signal;HPM_P1;HPM_P2
2023/12/24 00:01:12;;;;;;;15.88;2.95;;;10.00;99.90;;;;;;5009257;28;20498;-61
2023/12/24 00:03:38;;;;;;;19.83;3.70;;;10.00;99.90;;;;;;5013177;28;20091;-61
2023/12/24 00:06:05;;;;;;;18.58;4.38;;;10.00;99.90;;;;;;5013542;28;20045;-61
2023/12/24 00:08:31;;;;;;;19.63;3.25;;;10.00;99.90;;;;;;4992720;28;20397;-61
2023/12/24 00:10:57;;;;;;;12.45;3.55;;;10.00;99.90;;;;;;5024290;28;20053;-61
2023/12/24 00:13:26;;;;;;;20.77;4.32;;;10.00;99.90;;;;;;5012341;28;20044;-61
2023/12/24 00:15:52;;;;;;;17.42;3.50;;;10.10;99.90;;;;;;5011612;28;20029;-61
2023/12/24 00:18:19;;;;;;;16.48;3.60;;;10.00;99.90;;;;;;5012185;28;20065;-61
2023/12/24 00:20:45;;;;;;;16.25;3.60;;;10.00;99.90;;;;;;5004527;28;20048;-61
2023/12/24 00:23:11;;;;;;;14.30;3.25;;;10.00;99.90;;;;;;5023088;28;20049;-61
2023/12/24 00:25:38;;;;;;;24.65;3.92;;;10.00;99.90;;;;;;5005726;28;20069;-61
2023/12/24 00:28:04;;;;;;;27.02;4.15;;;10.00;99.90;;;;;;5007450;28;20041;-61
2023/12/24 00:30:30;;;;;;;20.60;4.43;;;10.00;99.90;;;;;;5010610;28;20801;-61
2023/12/24 00:32:57;;;;;;;20.67;3.55;;;10.00;99.90;;;;;;5008993;28;20045;-61
2023/12/24 00:35:24;;;;;;;19.42;3.47;;;10.00;99.90;;;;;;5008269;28;20587;-61
2023/12/24 00:37:50;;;;;;;16.83;3.70;;;10.00;99.90;;;;;;5012247;28;20064;-61
2023/12/24 00:40:17;;;;;;;17.92;3.25;;;10.10;99.90;;;;;;4990403;28;20041;-61
2023/12/24 00:42:43;;;;;;;13.30;3.15;;;10.00;99.90;;;;;;5002566;28;20091;-61
2023/12/24 00:45:10;;;;;;;19.52;3.72;;;10.00;99.90;;;;;;5011671;28;20073;-61
2023/12/24 00:47:36;;;;;;;20.83;3.58;;;10.00;99.90;;;;;;5011672;28;20033;-61
2023/12/24 00:50:01;;;;;;;10.93;3.00;;;10.00;99.90;;;;;;5013381;28;20055;-61
2023/12/24 00:52:27;;;;;;;16.70;3.58;;;10.00;99.90;;;;;;4977055;28;20037;-61
2023/12/24 00:54:53;;;;;;;19.17;4.20;;;10.00;99.90;;;;;;5014528;28;20049;-61
2023/12/24 00:57:19;;;;;;;16.73;3.22;;;10.00;99.90;;;;;;5014054;28;20196;-61
2023/12/24 00:59:45;;;;;;;21.08;4.05;;;10.00;99.90;;;;;;5001670;28;20540;-61
2023/12/24 01:02:11;;;;;;;23.85;4.50;;;10.00;99.90;;;;;;5005530;28;20521;-61
2023/12/24 01:04:37;;;;;;;22.45;3.25;;;10.00;99.90;;;;;;5017330;28;20052;-61
2023/12/24 01:07:03;;;;;;;22.83;4.93;;;10.00;99.90;;;;;;4997096;28;20502;-61
2023/12/24 01:09:28;;;;;;;18.80;3.70;;;10.00;99.90;;;;;;5015273;28;20033;-61
2023/12/24 01:11:54;;;;;;;21.00;3.90;;;10.00;99.90;;;;;;4992253;28;20041;-61
2023/12/24 01:14:20;;;;;;;19.88;3.75;;;10.00;99.90;;;;;;5011849;28;20045;-61
2023/12/24 01:16:45;;;;;;;14.25;3.65;;;10.00;99.90;;;;;;5017495;28;20045;-61
2023/12/24 01:19:12;;;;;;;17.25;3.70;;;10.00;99.90;;;;;;4996761;28;20042;-61
2023/12/24 01:21:37;;;;;;;16.00;3.70;;;10.00;99.90;;;;;;5010012;28;20052;-61
2023/12/24 01:24:03;;;;;;;12.20;3.33;;;10.00;99.90;;;;;;5012389;28;21057;-61
2023/12/24 01:26:29;;;;;;;20.10;4.22;;;10.00;99.90;;;;;;4990488;28;20160;-61
2023/12/24 01:28:55;;;;;;;21.55;3.65;;;10.00;99.90;;;;;;4985170;28;20068;-61
2023/12/24 01:31:20;;;;;;;18.88;4.03;;;10.00;99.90;;;;;;5008323;28;20034;-61
2023/12/24 01:33:46;;;;;;;16.23;3.55;;;10.00;99.90;;;;;;5032179;28;20036;-61
2023/12/24 01:36:12;;;;;;;26.00;4.18;;;10.00;99.90;;;;;;5026041;28;20153;-61
2023/12/24 01:38:37;;;;;;;19.48;3.85;;;10.00;99.90;;;;;;5013144;28;20040;-61
2023/12/24 01:41:03;;;;;;;12.38;3.13;;;10.00;99.90;;;;;;5006988;28;20387;-61
2023/12/24 01:43:29;;;;;;;18.17;3.95;;;10.00;99.90;;;;;;5007614;28;20038;-61
2023/12/24 01:45:55;;;;;;;17.00;5.00;;;10.00;99.90;;;;;;4989431;28;20041;-62
2023/12/24 01:48:21;;;;;;;17.08;3.60;;;10.00;99.90;;;;;;5006575;28;20068;-61
2023/12/24 01:50:48;;;;;;;15.43;2.65;;;10.00;99.90;;;;;;5014222;28;20047;-61
2023/12/24 01:53:16;;;;;;;14.65;2.60;;;10.00;99.90;;;;;;4990989;28;20048;-61
2023/12/24 01:55:43;;;;;;;15.68;3.85;;;10.00;99.90;;;;;;5005388;28;20506;-61
2023/12/24 01:58:08;;;;;;;17.88;3.67;;;10.00;99.90;;;;;;5006048;28;20414;-61
2023/12/24 02:00:35;;;;;;;19.08;4.65;;;10.00;99.90;;;;;;4994994;28;20049;-61
2023/12/24 02:03:02;;;;;;;17.52;3.53;;;10.00;99.90;;;;;;5018515;28;20041;-61
2023/12/24 02:05:28;;;;;;;18.80;3.67;;;10.00;99.90;;;;;;5009848;28;20037;-61
2023/12/24 02:07:55;;;;;;;21.77;3.50;;;10.00;99.90;;;;;;5023191;28;20030;-61
2023/12/24 02:10:22;;;;;;;16.80;4.03;;;10.00;99.90;;;;;;5006571;28;20045;-61
2023/12/24 02:12:49;;;;;;;17.88;3.58;;;10.00;99.90;;;;;;5007187;28;20099;-61
2023/12/24 02:15:15;;;;;;;16.65;3.28;;;10.00;99.90;;;;;;5015577;28;20049;-61
2023/12/24 02:17:42;;;;;;;13.60;3.13;;;10.00;99.90;;;;;;5004312;28;20042;-61
2023/12/24 02:20:09;;;;;;;17.40;4.22;;;10.00;99.90;;;;;;5012550;28;20048;-61
2023/12/24 02:22:34;;;;;;;23.85;3.90;;;10.00;99.90;;;;;;5033113;28;20045;-61
2023/12/24 02:25:01;;;;;;;21.05;3.63;;;10.10;99.90;;;;;;5012818;28;20060;-61
2023/12/24 02:27:35;;;;;;;18.77;3.40;;;10.00;99.90;;;;;;5013483;28;20084;-61
2023/12/24 02:30:12;;;;;;;19.95;4.20;;;10.10;99.90;;;;;;5011308;28;20049;-61
2023/12/24 02:32:39;;;;;;;18.40;4.88;;;10.10;99.90;;;;;;5005349;28;20103;-61
2023/12/24 02:35:07;;;;;;;28.98;4.13;;;10.10;99.90;;;;;;4988731;28;20528;-61
2023/12/24 02:37:33;;;;;;;20.25;4.03;;;10.10;99.90;;;;;;5009054;28;20174;-61
2023/12/24 02:39:59;;;;;;;21.90;3.83;;;10.10;99.90;;;;;;5012946;28;20116;-61
2023/12/24 02:42:25;;;;;;;18.83;4.03;;;10.10;99.90;;;;;;5013410;28;20040;-62
2023/12/24 02:44:50;;;;;;;18.02;3.70;;;10.10;99.90;;;;;;5011322;28;20037;-61
2023/12/24 02:47:16;;;;;;;29.98;5.60;;;10.10;99.90;;;;;;5011792;28;20473;-61
2023/12/24 02:49:42;;;;;;;16.13;3.78;;;10.10;99.90;;;;;;4995942;28;20178;-61
2023/12/24 02:52:08;;;;;;;22.17;4.03;;;10.10;99.90;;;;;;5012636;28;20044;-61
2023/12/24 02:54:36;;;;;;;25.85;4.78;;;10.10;99.90;;;;;;5015358;28;20111;-61
2023/12/24 02:57:02;;;;;;;19.85;3.85;;;10.10;99.90;;;;;;5014819;28;20413;-61
2023/12/24 02:59:28;;;;;;;18.17;3.05;;;10.20;99.90;;;;;;5018574;28;20311;-61
2023/12/24 03:01:54;;;;;;;16.77;4.65;;;10.20;99.90;;;;;;5011923;28;20046;-61
2023/12/24 03:04:19;;;;;;;20.25;3.30;;;10.20;99.90;;;;;;5033254;28;20140;-61
2023/12/24 03:06:45;;;;;;;22.60;3.20;;;10.20;99.90;;;;;;5012544;28;20040;-61
2023/12/24 03:09:12;;;;;;;17.95;2.97;;;10.20;99.90;;;;;;5030516;28;20087;-61
2023/12/24 03:11:38;;;;;;;17.05;2.95;;;10.20;99.90;;;;;;5013209;28;20150;-61
2023/12/24 03:14:03;;;;;;;12.63;2.67;;;10.20;99.90;;;;;;5013584;28;20621;-61
2023/12/24 03:16:29;;;;;;;13.38;2.90;;;10.20;99.90;;;;;;5012803;28;20384;-61
2023/12/24 03:18:55;;;;;;;12.73;3.05;;;10.20;99.90;;;;;;4998540;28;20045;-61
2023/12/24 03:21:20;;;;;;;10.43;2.97;;;10.20;99.90;;;;;;5033622;28;20414;-61
2023/12/24 03:23:46;;;;;;;8.05;2.58;;;10.20;99.90;;;;;;5017479;28;20037;-61
2023/12/24 03:26:22;;;;;;;16.20;3.08;;;10.30;99.90;;;;;;5002488;28;20061;-62
2023/12/24 03:28:49;;;;;;;17.42;4.22;;;10.30;99.90;;;;;;5001007;28;20457;-62
2023/12/24 03:31:15;;;;;;;9.73;3.10;;;10.30;99.90;;;;;;4983539;28;20052;-62
2023/12/24 03:33:41;;;;;;;10.52;2.70;;;10.30;99.90;;;;;;4982195;28;20042;-61
2023/12/24 03:36:10;;;;;;;15.50;3.70;;;10.30;99.90;;;;;;4999815;28;20084;-61
2023/12/24 03:38:36;;;;;;;9.32;3.38;;;10.30;99.90;;;;;;5000290;28;20445;-62
2023/12/24 03:41:02;;;;;;;7.07;2.80;;;10.30;99.90;;;;;;5008368;28;20037;-62
2023/12/24 03:43:29;;;;;;;12.60;2.88;;;10.30;99.90;;;;;;5001487;28;20042;-62
2023/12/24 03:45:55;;;;;;;8.20;2.80;;;10.30;99.90;;;;;;4999661;28;20038;-61
2023/12/24 03:48:21;;;;;;;8.38;2.70;;;10.30;99.90;;;;;;4999033;28;20972;-62
2023/12/24 03:50:47;;;;;;;7.90;2.35;;;10.30;99.90;;;;;;4998370;28;20421;-62
2023/12/24 03:53:12;;;;;;;8.15;2.40;;;10.40;99.90;;;;;;4982821;28;20715;-62
2023/12/24 03:55:38;;;;;;;8.57;2.50;;;10.30;99.90;;;;;;4982622;28;20041;-61
2023/12/24 03:58:04;;;;;;;7.53;2.80;;;10.40;99.90;;;;;;4999906;28;20561;-61
2023/12/24 04:00:29;;;;;;;7.38;2.55;;;10.40;99.90;;;;;;4980486;28;20041;-61
2023/12/24 04:02:55;;;;;;;10.55;2.88;;;10.40;99.90;;;;;;4983609;28;20406;-62
2023/12/24 04:05:21;;;;;;;9.93;3.65;;;10.40;99.90;;;;;;4999031;28;20052;-61
2023/12/24 04:07:47;;;;;;;9.20;3.70;;;10.40;99.90;;;;;;5000463;28;20045;-61
2023/12/24 04:10:13;;;;;;;9.18;3.60;;;10.40;99.90;;;;;;5004008;28;20080;-61
2023/12/24 04:12:40;;;;;;;10.88;3.83;;;10.40;99.90;;;;;;4985480;28;20437;-61
2023/12/24 04:15:07;;;;;;;10.05;3.33;;;10.40;99.90;;;;;;4998521;28;20049;-61
2023/12/24 04:17:34;;;;;;;10.45;3.38;;;10.40;99.90;;;;;;4998432;28;20049;-61
2023/12/24 04:20:03;;;;;;;13.70;3.45;;;10.50;99.90;;;;;;5003593;28;20041;-61
2023/12/24 04:22:28;;;;;;;15.30;3.90;;;10.40;99.90;;;;;;4998721;28;20049;-61
2023/12/24 04:24:54;;;;;;;17.60;5.35;;;10.40;99.90;;;;;;4998532;28;20103;-61
2023/12/24 04:27:20;;;;;;;13.88;4.30;;;10.50;99.90;;;;;;4979430;28;20502;-61
2023/12/24 04:29:45;;;;;;;12.30;3.97;;;10.50;99.90;;;;;;5000919;28;20107;-61
2023/12/24 04:32:12;;;;;;;16.08;3.78;;;10.50;99.90;;;;;;4996125;28;20137;-61
2023/12/24 04:34:38;;;;;;;17.05;5.13;;;10.50;99.90;;;;;;4998746;28;20191;-62
2023/12/24 04:37:04;;;;;;;16.25;4.22;;;10.50;99.90;;;;;;4998820;28;20512;-60
2023/12/24 04:39:30;;;;;;;13.65;3.78;;;10.60;99.90;;;;;;5018766;28;20060;-61
2023/12/24 04:41:56;;;;;;;17.40;4.82;;;10.60;99.90;;;;;;4984606;28;20041;-62
2023/12/24 04:44:21;;;;;;;19.10;4.72;;;10.60;99.90;;;;;;5014099;28;20047;-62
2023/12/24 04:46:48;;;;;;;21.00;4.82;;;10.60;99.90;;;;;;4995340;28;20112;-61
2023/12/24 04:49:13;;;;;;;21.58;5.35;;;10.60;99.90;;;;;;5011963;28;20057;-62
2023/12/24 04:51:41;;;;;;;13.75;4.28;;;10.60;99.90;;;;;;5011207;28;20089;-62
2023/12/24 04:54:07;;;;;;;14.82;4.35;;;10.70;99.90;;;;;;4994223;28;20517;-62
2023/12/24 04:56:32;;;;;;;21.10;4.38;;;10.70;99.90;;;;;;5012333;28;20037;-61
2023/12/24 04:59:01;;;;;;;18.33;4.05;;;10.70;99.90;;;;;;4994459;28;20072;-60
2023/12/24 05:01:27;;;;;;;19.38;4.28;;;10.70;99.90;;;;;;5014337;28;20052;-60
2023/12/24 05:03:53;;;;;;;19.27;5.20;;;10.70;99.90;;;;;;5013459;28;20037;-60
2023/12/24 05:06:19;;;;;;;19.25;3.90;;;10.70;99.90;;;;;;5017385;28;20052;-61
2023/12/24 05:08:45;;;;;;;20.58;4.18;;;10.70;99.90;;;;;;5012532;28;20034;-61
2023/12/24 05:11:11;;;;;;;20.50;4.22;;;10.70;99.90;;;;;;5011504;28;20077;-59
2023/12/24 05:13:37;;;;;;;14.80;4.22;;;10.70;99.90;;;;;;5016210;28;20068;-61
2023/12/24 05:16:04;;;;;;;17.45;4.18;;;10.80;99.90;;;;;;5019103;28;20068;-60
2023/12/24 05:18:33;;;;;;;20.77;4.75;;;10.80;99.90;;;;;;4993923;28;20111;-58
2023/12/24 05:20:58;;;;;;;27.33;4.00;;;10.80;99.90;;;;;;5007794;28;20417;-61
2023/12/24 05:23:25;;;;;;;19.10;4.30;;;10.80;99.90;;;;;;5034045;28;20043;-61
2023/12/24 05:25:51;;;;;;;22.35;4.57;;;10.80;99.90;;;;;;5031023;28;20053;-62
2023/12/24 05:28:17;;;;;;;30.30;4.80;;;10.80;99.90;;;;;;5009746;28;20124;-62
2023/12/24 05:30:46;;;;;;;20.02;3.72;;;10.80;99.90;;;;;;5000998;28;20084;-62
2023/12/24 05:33:12;;;;;;;21.00;3.92;;;10.80;99.90;;;;;;4989607;28;20050;-62
2023/12/24 05:35:38;;;;;;;21.77;3.47;;;10.90;99.90;;;;;;5011345;28;20123;-62
2023/12/24 05:38:04;;;;;;;17.08;3.40;;;10.90;99.90;;;;;;5028865;28;20072;-62
2023/12/24 05:40:30;;;;;;;21.50;3.83;;;10.90;99.90;;;;;;5004550;28;20046;-62
2023/12/24 05:42:55;;;;;;;17.52;3.55;;;10.90;99.90;;;;;;5014209;28;20049;-62
2023/12/24 05:45:21;;;;;;;17.75;3.63;;;10.90;99.90;;;;;;4998694;28;20147;-62
2023/12/24 05:47:47;;;;;;;15.95;3.42;;;11.00;99.90;;;;;;5001954;28;20056;-62
2023/12/24 05:50:13;;;;;;;21.40;3.85;;;11.00;99.90;;;;;;4987927;28;20041;-62
2023/12/24 05:52:41;;;;;;;18.73;4.22;;;11.00;99.90;;;;;;5016059;28;20406;-62
2023/12/24 05:55:07;;;;;;;16.13;3.15;;;11.00;99.90;;;;;;5017184;28;20045;-62
2023/12/24 05:57:34;;;;;;;22.40;4.75;;;11.00;99.90;;;;;;5017845;28;20184;-62
2023/12/24 05:59:59;;;;;;;25.95;3.53;;;11.10;99.90;;;;;;5015475;28;20350;-62
2023/12/24 06:02:25;;;;;;;26.52;3.97;;;11.10;99.90;;;;;;4999260;28;20049;-62
2023/12/24 06:04:51;;;;;;;21.77;3.70;;;11.10;99.90;;;;;;5002350;28;20049;-62
2023/12/24 06:07:17;;;;;;;15.40;3.53;;;11.10;99.90;;;;;;5023540;28;20069;-62
2023/12/24 06:09:43;;;;;;;23.40;3.72;;;11.10;99.90;;;;;;5018751;28;20483;-62
2023/12/24 06:12:08;;;;;;;18.80;3.55;;;11.10;99.90;;;;;;4990560;28;20045;-62
2023/12/24 06:14:34;;;;;;;15.25;3.25;;;11.10;99.90;;;;;;5016804;28;20045;-62
2023/12/24 06:17:00;;;;;;;23.17;3.97;;;11.10;99.90;;;;;;5010772;28;20154;-62
2023/12/24 06:19:26;;;;;;;20.35;3.20;;;11.20;99.90;;;;;;4999243;28;20068;-62
2023/12/24 06:21:52;;;;;;;19.08;3.75;;;11.20;99.90;;;;;;5016800;28;20128;-62
2023/12/24 06:24:24;;;;;;;16.55;3.28;;;11.20;99.90;;;;;;5020187;28;20450;-62
2023/12/24 06:26:51;;;;;;;20.40;3.67;;;11.20;99.90;;;;;;5001632;28;20060;-62
2023/12/24 06:29:17;;;;;;;17.60;2.72;;;11.20;99.90;;;;;;5020882;28;20036;-62
2023/12/24 06:31:43;;;;;;;15.82;3.40;;;11.20;99.90;;;;;;5013705;28;20061;-62
2023/12/24 06:34:12;;;;;;;19.63;3.40;;;11.20;99.90;;;;;;5015345;28;20140;-62
2023/12/24 06:36:38;;;;;;;19.77;3.33;;;11.20;99.90;;;;;;5003898;28;20098;-62
2023/12/24 06:39:05;;;;;;;23.80;4.65;;;11.20;99.90;;;;;;5014092;28;20044;-62
2023/12/24 06:41:30;;;;;;;22.23;3.75;;;11.20;99.90;;;;;;5009105;28;20891;-62
2023/12/24 06:43:57;;;;;;;14.52;2.92;;;11.20;99.90;;;;;;4994945;28;20046;-62
2023/12/24 06:46:24;;;;;;;22.60;3.33;;;11.20;99.90;;;;;;5002407;28;20049;-62
2023/12/24 06:48:53;;;;;;;15.73;3.45;;;11.20;99.90;;;;;;5002291;28;20131;-62
2023/12/24 06:51:19;;;;;;;18.65;4.00;;;11.20;99.90;;;;;;5002171;28;20044;-62
2023/12/24 06:53:45;;;;;;;20.45;3.72;;;11.20;99.90;;;;;;4982057;28;20046;-62
2023/12/24 06:56:10;;;;;;;16.55;4.05;;;11.20;99.90;;;;;;4996667;28;20049;-62
2023/12/24 06:58:36;;;;;;;17.75;3.65;;;11.20;99.90;;;;;;4996642;28;20079;-62
2023/12/24 07:01:02;;;;;;;21.33;4.03;;;11.20;99.90;;;;;;5005835;28;20111;-62
2023/12/24 07:03:28;;;;;;;10.48;2.63;;;11.30;99.90;;;;;;5013522;28;20037;-62
2023/12/24 07:05:54;;;;;;;24.38;3.33;;;11.30;99.90;;;;;;4982542;28;20279;-62
2023/12/24 07:08:21;;;;;;;19.88;3.75;;;11.30;99.90;;;;;;5011555;28;20547;-62
2023/12/24 07:10:47;;;;;;;17.08;2.85;;;11.30;99.90;;;;;;5010884;28;20037;-62
2023/12/24 07:13:13;;;;;;;20.35;3.63;;;11.30;99.90;;;;;;5015900;28;20434;-62
2023/12/24 07:15:39;;;;;;;19.48;3.60;;;11.30;99.90;;;;;;4993938;28;20159;-62
2023/12/24 07:18:06;;;;;;;21.60;3.67;;;11.30;99.90;;;;;;4999741;28;20041;-62
2023/12/24 07:20:31;;;;;;;18.52;3.17;;;11.40;99.90;;;;;;5003061;28;20041;-62
2023/12/24 07:22:57;;;;;;;20.88;2.95;;;11.40;99.90;;;;;;5001674;28;20049;-62
2023/12/24 07:25:23;;;;;;;18.63;4.28;;;11.40;99.90;;;;;;5007720;28;20036;-62
2023/12/24 07:27:49;;;;;;;13.32;2.63;;;11.40;99.90;;;;;;5011777;28;20095;-62
2023/12/24 07:30:15;;;;;;;19.50;3.03;;;11.40;99.90;;;;;;5018409;28;20094;-62
2023/12/24 07:32:45;;;;;;;16.83;3.35;;;11.50;99.90;;;;;;5029215;28;20033;-62
2023/12/24 07:35:10;;;;;;;20.13;4.20;;;11.50;99.90;;;;;;5012162;28;20433;-62
2023/12/24 07:37:36;;;;;;;15.10;3.70;;;11.50;99.90;;;;;;5005937;28;20052;-62
2023/12/24 07:40:03;;;;;;;19.30;3.60;;;11.50;99.90;;;;;;4988174;28;20048;-62
2023/12/24 07:42:29;;;;;;;19.80;3.20;;;11.50;99.90;;;;;;5012178;28;20485;-62
2023/12/24 07:44:55;;;;;;;21.52;3.45;;;11.50;99.90;;;;;;5009637;28;20084;-62
2023/12/24 07:47:20;;;;;;;21.55;3.78;;;11.50;99.90;;;;;;5009376;28;20045;-62
2023/12/24 07:49:46;;;;;;;19.05;3.28;;;11.50;99.90;;;;;;4996753;28;20581;-61
2023/12/24 07:52:12;;;;;;;26.10;4.68;;;11.50;99.90;;;;;;5010979;28;20060;-62
2023/12/24 07:54:37;;;;;;;24.70;4.25;;;11.50;99.90;;;;;;5004431;28;20071;-62
2023/12/24 07:57:03;;;;;;;19.90;3.67;;;11.50;99.90;;;;;;5014059;28;20131;-62
2023/12/24 07:59:29;;;;;;;16.17;3.22;;;11.50;99.90;;;;;;4995468;28;20045;-62
2023/12/24 08:01:55;;;;;;;18.02;3.28;;;11.50;99.90;;;;;;4981066;28;20044;-61
2023/12/24 08:04:20;;;;;;;13.88;3.50;;;11.50;99.90;;;;;;4984410;28;20041;-62
2023/12/24 08:06:46;;;;;;;22.30;3.90;;;11.50;99.90;;;;;;4988370;28;20034;-61
2023/12/24 08:09:12;;;;;;;17.02;3.50;;;11.50;99.90;;;;;;4999565;28;20541;-62
2023/12/24 08:11:38;;;;;;;17.33;3.25;;;11.50;99.90;;;;;;4997391;28;20049;-62
2023/12/24 08:14:04;;;;;;;21.80;5.72;;;11.50;99.90;;;;;;5003103;28;21366;-61
2023/12/24 08:16:35;;;;;;;17.95;4.35;;;11.60;99.90;;;;;;5019659;28;20384;-62
2023/12/24 08:19:00;;;;;;;17.48;4.22;;;11.60;99.90;;;;;;5001161;28;20036;-62
2023/12/24 08:21:26;;;;;;;15.15;3.70;;;11.60;99.90;;;;;;4980710;28;20046;-62
2023/12/24 08:23:52;;;;;;;19.35;3.72;;;11.60;99.90;;;;;;5001298;28;20041;-62
2023/12/24 08:26:18;;;;;;;23.90;3.25;;;11.60;99.90;;;;;;5020008;28;20406;-62
2023/12/24 08:28:44;;;;;;;20.98;3.70;;;11.60;99.90;;;;;;5014576;28;20399;-62
2023/12/24 08:31:10;;;;;;;22.13;3.90;;;11.60;99.90;;;;;;4999744;28;20187;-62
2023/12/24 08:33:37;;;;;;;20.38;3.28;;;11.60;99.90;;;;;;5001476;28;20033;-62
2023/12/24 08:36:03;;;;;;;22.55;3.67;;;11.60;99.90;;;;;;5001991;28;20054;-62
2023/12/24 08:38:29;;;;;;;17.38;3.10;;;11.70;99.90;;;;;;5000340;28;20108;-62
2023/12/24 08:40:55;;;;;;;16.95;3.38;;;11.70;99.90;;;;;;5001624;28;20656;-62
2023/12/24 08:43:20;;;;;;;15.18;2.78;;;11.70;99.90;;;;;;5024304;28;20124;-62
2023/12/24 08:45:46;;;;;;;15.60;3.13;;;11.70;99.90;;;;;;4988918;28;20584;-62
2023/12/24 08:48:12;;;;;;;18.38;3.50;;;11.70;99.90;;;;;;4997838;28;21459;-62
2023/12/24 08:50:38;;;;;;;22.83;3.70;;;11.70;99.90;;;;;;5004893;28;20041;-62
2023/12/24 08:53:03;;;;;;;16.63;3.88;;;11.80;99.90;;;;;;5001342;28;20124;-62
2023/12/24 08:55:29;;;;;;;22.65;3.35;;;11.80;99.90;;;;;;5001791;28;20042;-62
2023/12/24 08:57:55;;;;;;;16.20;3.33;;;11.80;99.90;;;;;;4997762;28;20033;-62
2023/12/24 09:00:21;;;;;;;18.02;4.57;;;11.80;99.90;;;;;;5001355;28;20049;-62
2023/12/24 09:02:47;;;;;;;15.27;3.20;;;11.80;99.90;;;;;;5004245;28;20077;-62
2023/12/24 09:05:13;;;;;;;19.48;4.35;;;11.80;99.90;;;;;;4983631;28;20510;-62
2023/12/24 09:07:38;;;;;;;19.35;3.58;;;11.80;99.90;;;;;;5000467;28;20045;-62
2023/12/24 09:10:04;;;;;;;16.95;3.85;;;11.80;99.90;;;;;;5000785;28;20463;-62
2023/12/24 09:12:30;;;;;;;20.90;5.15;;;11.90;99.90;;;;;;5003112;28;20103;-62
2023/12/24 09:14:56;;;;;;;24.23;4.28;;;11.90;99.90;;;;;;4997564;28;20577;-62
2023/12/24 09:17:22;;;;;;;14.20;3.60;;;11.90;99.90;;;;;;4997630;28;20461;-62
2023/12/24 09:19:48;;;;;;;18.90;3.85;;;11.90;99.90;;;;;;5003020;28;20041;-62
2023/12/24 09:22:13;;;;;;;21.55;4.03;;;12.00;99.90;;;;;;4997604;28;20064;-62
2023/12/24 09:24:40;;;;;;;19.08;3.80;;;12.00;99.90;;;;;;5018285;28;20132;-62
2023/12/24 09:27:05;;;;;;;16.60;3.28;;;12.00;99.90;;;;;;4995007;28;20044;-62
2023/12/24 09:29:31;;;;;;;13.95;3.33;;;12.00;99.90;;;;;;4984498;28;20037;-62
2023/12/24 09:31:57;;;;;;;19.95;3.85;;;12.00;99.90;;;;;;4997233;28;20041;-62
2023/12/24 09:34:23;;;;;;;12.88;2.90;;;12.00;99.90;;;;;;4994676;28;20037;-62
2023/12/24 09:36:49;;;;;;;15.95;2.90;;;12.00;99.90;;;;;;4992946;28;20621;-62
2023/12/24 09:39:14;;;;;;;13.82;2.80;;;12.10;99.90;;;;;;5002459;28;20060;-62
2023/12/24 09:41:46;;;;;;;17.17;3.28;;;12.10;99.90;;;;;;5019119;28;20398;-62
2023/12/24 09:44:11;;;;;;;19.60;3.33;;;12.10;99.90;;;;;;4994396;28;20049;-62
2023/12/24 09:46:37;;;;;;;15.10;3.17;;;12.10;99.90;;;;;;4998670;28;20044;-62
2023/12/24 09:49:03;;;;;;;15.40;3.33;;;12.10;99.90;;;;;;4996440;28;20136;-62
2023/12/24 09:51:29;;;;;;;18.05;3.63;;;12.10;99.90;;;;;;4981899;28;20048;-62
2023/12/24 09:53:55;;;;;;;13.45;3.35;;;12.10;99.90;;;;;;5002844;28;20037;-62
2023/12/24 09:56:21;;;;;;;15.95;3.53;;;12.10;99.90;;;;;;5014747;28;20516;-62
2023/12/24 09:58:47;;;;;;;20.90;4.18;;;12.10;99.90;;;;;;4979933;28;20515;-62
2023/12/24 10:01:13;;;;;;;11.10;2.58;;;12.20;99.90;;;;;;4981532;28;20509;-62
2023/12/24 10:03:39;;;;;;;15.20;2.78;;;12.20;99.90;;;;;;4996173;28;20029;-62
2023/12/24 10:06:07;;;;;;;23.90;4.22;;;12.20;99.90;;;;;;4994140;28;20037;-62
2023/12/24 10:08:37;;;;;;;22.63;3.22;;;12.20;99.90;;;;;;4994842;28;20139;-62
2023/12/24 10:11:16;;;;;;;16.73;2.90;;;12.20;99.90;;;;;;4989153;28;20112;-62
2023/12/24 10:13:43;;;;;;;15.00;2.60;;;12.30;99.90;;;;;;4993112;28;20073;-62
2023/12/24 10:16:09;;;;;;;17.05;4.18;;;12.30;99.90;;;;;;5000759;28;20041;-62
2023/12/24 10:18:36;;;;;;;14.48;3.78;;;12.30;99.90;;;;;;4978972;28;20041;-62
2023/12/24 10:21:10;;;;;;;18.50;3.28;;;12.30;99.90;;;;;;4996284;28;20053;-62
2023/12/24 10:23:36;;;;;;;18.42;3.05;;;12.40;99.90;;;;;;4999240;28;20437;-62
2023/12/24 10:26:05;;;;;;;19.38;2.95;;;12.40;99.90;;;;;;4983201;28;20063;-62
2023/12/24 10:28:32;;;;;;;17.13;3.45;;;12.40;99.90;;;;;;5012640;28;20409;-62
2023/12/24 10:31:08;;;;;;;15.73;3.15;;;12.50;99.90;;;;;;5013909;28;22207;-62
2023/12/24 10:33:38;;;;;;;11.15;2.58;;;12.50;99.90;;;;;;5013198;28;20068;-62
2023/12/24 10:36:05;;;;;;;11.40;2.50;;;12.50;99.90;;;;;;4997179;28;20049;-62
2023/12/24 10:38:31;;;;;;;15.70;2.72;;;12.50;99.90;;;;;;4996844;28;20049;-62
2023/12/24 10:40:57;;;;;;;10.45;2.25;;;12.50;99.90;;;;;;4995899;28;20497;-62
2023/12/24 10:43:23;;;;;;;12.25;2.15;;;12.50;99.90;;;;;;4998711;28;20056;-62
2023/12/24 10:45:49;;;;;;;14.07;3.03;;;12.60;99.90;;;;;;5015850;28;20394;-63
2023/12/24 10:48:15;;;;;;;14.57;3.33;;;12.60;99.90;;;;;;4998316;28;20466;-62
2023/12/24 10:50:41;;;;;;;14.55;3.22;;;12.60;99.90;;;;;;4998975;28;20045;-62
2023/12/24 10:53:07;;;;;;;13.45;2.33;;;12.60;99.90;;;;;;5002010;28;20041;-62
2023/12/24 10:55:34;;;;;;;15.88;2.97;;;12.60;99.90;;;;;;5001396;28;20393;-62
2023/12/24 10:58:29;;;;;;;12.90;3.30;;;12.60;99.90;;;;;;4999697;28;20094;-62
2023/12/24 11:01:07;;;;;;;13.52;2.60;;;12.60;99.90;;;;;;5001906;28;20549;-62
2023/12/24 11:03:50;;;;;;;16.52;4.25;;;12.50;99.90;;;;;;5000424;28;20053;-62
2023/12/24 11:06:37;;;;;;;17.08;3.03;;;12.50;99.90;;;;;;5004998;28;20037;-62
2023/12/24 11:09:26;;;;;;;15.93;3.13;;;12.50;99.90;;;;;;5004087;28;20041;-62
2023/12/24 11:11:55;;;;;;;15.88;2.38;;;12.50;99.90;;;;;;5012870;28;20061;-62
2023/12/24 11:14:45;;;;;;;13.07;2.83;;;12.50;99.90;;;;;;4999004;28;20169;-62
2023/12/24 11:17:34;;;;;;;19.75;3.00;;;12.50;99.90;;;;;;4995051;28;20457;-62
2023/12/24 11:20:18;;;;;;;14.13;3.30;;;12.50;99.90;;;;;;4983147;28;20041;-62
2023/12/24 11:23:07;;;;;;;;;;;12.60;99.90;;;;;;4995354;28;20550;-62
2023/12/24 11:25:36;;;;;;;14.43;3.15;;;12.60;99.90;;;;;;4978313;28;19943;-62
2023/12/24 11:28:03;;;;;;;23.73;3.88;;;12.60;99.90;;;;;;5001906;28;20029;-62
2023/12/24 11:30:29;;;;;;;14.27;2.78;;;12.60;99.90;;;;;;5010730;28;20129;-62
2023/12/24 11:32:55;;;;;;;17.85;3.20;;;12.60;99.90;;;;;;4995095;28;20522;-62
2023/12/24 11:35:52;;;;;;;16.60;2.70;;;12.60;99.90;;;;;;4997119;28;20482;-62
2023/12/24 11:38:33;;;;;;;16.25;3.30;;;12.70;99.90;;;;;;4997776;28;20227;-62
2023/12/24 11:41:11;;;;;;;14.07;2.92;;;12.70;99.90;;;;;;4990438;28;20041;-62
2023/12/24 11:43:39;;;;;;;16.80;3.00;;;12.70;99.90;;;;;;5000981;28;20386;-62
2023/12/24 11:46:06;;;;;;;18.90;3.45;;;12.70;99.90;;;;;;4994376;28;20053;-62
2023/12/24 11:48:36;;;;;;;18.25;3.47;;;12.70;99.90;;;;;;4981891;28;20479;-62
2023/12/24 11:51:09;;;;;;;22.65;2.97;;;12.70;99.90;;;;;;4999303;28;20045;-62
2023/12/24 11:53:36;;;;;;;18.98;3.72;;;12.70;99.90;;;;;;5001338;28;20045;-62
2023/12/24 11:56:23;;;;;;;13.50;3.67;;;12.70;99.90;;;;;;5000808;28;21742;-62
2023/12/24 11:58:49;;;;;;;17.05;3.10;;;12.80;99.90;;;;;;5004880;28;20041;-62
2023/12/24 12:01:25;;;;;;;15.07;3.95;;;12.70;99.90;;;;;;5002256;28;20041;-62
2023/12/24 12:03:54;;;;;;;19.50;3.35;;;12.70;99.90;;;;;;5002327;28;20060;-62
2023/12/24 12:06:20;;;;;;;21.08;3.70;;;12.70;99.90;;;;;;4998737;28;20037;-62
2023/12/24 12:08:46;;;;;;;12.43;4.10;;;12.70;99.90;;;;;;4999397;28;20086;-62
2023/12/24 12:11:12;;;;;;;18.15;3.47;;;12.80;99.90;;;;;;4980567;28;20041;-62
2023/12/24 12:13:38;;;;;;;17.50;3.67;;;12.70;99.90;;;;;;5000598;28;20091;-62
2023/12/24 12:16:04;;;;;;;12.90;2.80;;;12.80;99.90;;;;;;4983681;28;20077;-62
2023/12/24 12:18:30;;;;;;;18.25;3.92;;;12.80;99.90;;;;;;4983722;28;20050;-62
2023/12/24 12:20:55;;;;;;;16.42;2.78;;;12.80;99.90;;;;;;4997489;28;20091;-62
2023/12/24 12:23:21;;;;;;;16.05;3.53;;;12.80;99.90;;;;;;4998291;28;20049;-62
2023/12/24 12:25:47;;;;;;;14.95;3.30;;;12.80;99.90;;;;;;4974584;28;20149;-62
2023/12/24 12:28:13;;;;;;;22.38;3.88;;;12.80;99.90;;;;;;4991645;28;20137;-62
2023/12/24 12:30:39;;;;;;;24.52;3.53;;;12.80;99.90;;;;;;5002279;28;20120;-62
2023/12/24 12:33:05;;;;;;;14.75;2.65;;;12.80;99.90;;;;;;4994498;28;20541;-62
2023/12/24 12:35:31;;;;;;;12.82;2.58;;;12.80;99.90;;;;;;5002107;28;20050;-62
2023/12/24 12:37:57;;;;;;;15.70;3.15;;;12.80;99.90;;;;;;4998243;28;20047;-62